sensor_id;sensor_type;location;lat;lon;timestamp;pressure;altitude;pressure_sealevel;temperature;humidity
51083;BME280;37131;42.694;23.350;2023-07-31T00:00:04;95095.22;;;20.76;97.42
51083;BME280;37131;42.694;23.350;2023-07-31T00:02:30;95099.91;;;20.65;99.98
51083;BME280;37131;42.694;23.350;2023-07-31T00:04:55;95108.78;;;20.56;100.00
51083;BME280;37131;42.694;23.350;2023-07-31T00:07:20;95104.56;;;20.55;99.84
51083;BME280;37131;42.694;23.350;2023-07-31T00:09:46;95105.66;;;20.54;98.10
51083;BME280;37131;42.694;23.350;2023-07-31T00:12:11;95084.06;;;20.46;98.55
51083;BME280;37131;42.694;23.350;2023-07-31T00:14:36;95115.88;;;20.60;100.00
51083;BME280;37131;42.694;23.350;2023-07-31T00:17:02;95111.63;;;20.59;95.88
51083;BME280;37131;42.694;23.350;2023-07-31T00:19:27;95109.13;;;20.68;97.95
51083;BME280;37131;42.694;23.350;2023-07-31T00:21:53;95103.22;;;20.57;99.81
51083;BME280;37131;42.694;23.350;2023-07-31T00:24:18;95098.91;;;20.61;98.09
51083;BME280;37131;42.694;23.350;2023-07-31T00:26:43;95098.69;;;20.58;98.73
51083;BME280;37131;42.694;23.350;2023-07-31T00:29:09;95006.22;;;20.28;97.11
51083;BME280;37131;42.694;23.350;2023-07-31T00:31:34;95085.63;;;20.80;94.36
51083;BME280;37131;42.694;23.350;2023-07-31T00:34:00;95051.16;;;20.66;96.74
51083;BME280;37131;42.694;23.350;2023-07-31T00:36:25;95070.53;;;20.62;98.55
51083;BME280;37131;42.694;23.350;2023-07-31T00:38:50;95042.47;;;20.61;95.56
51083;BME280;37131;42.694;23.350;2023-07-31T00:41:16;95061.66;;;20.85;94.12
51083;BME280;37131;42.694;23.350;2023-07-31T00:43:41;95062.47;;;20.86;94.63
51083;BME280;37131;42.694;23.350;2023-07-31T00:46:07;95067.84;;;20.67;96.92
51083;BME280;37131;42.694;23.350;2023-07-31T00:48:32;95065.50;;;20.79;98.05
51083;BME280;37131;42.694;23.350;2023-07-31T00:50:59;95076.28;;;20.69;100.00
51083;BME280;37131;42.694;23.350;2023-07-31T00:53:26;95061.81;;;20.61;100.00
51083;BME280;37131;42.694;23.350;2023-07-31T00:55:53;95074.22;;;20.80;100.00
51083;BME280;37131;42.694;23.350;2023-07-31T00:58:18;95069.31;;;20.73;98.61
51083;BME280;37131;42.694;23.350;2023-07-31T01:00:44;95066.69;;;20.73;98.84
51083;BME280;37131;42.694;23.350;2023-07-31T01:03:10;95058.50;;;20.70;100.00
51083;BME280;37131;42.694;23.350;2023-07-31T01:08:37;95053.31;;;20.78;100.00
51083;BME280;37131;42.694;23.350;2023-07-31T01:11:23;95057.59;;;20.60;100.00
51083;BME280;37131;42.694;23.350;2023-07-31T01:13:50;95063.16;;;20.45;100.00
51083;BME280;37131;42.694;23.350;2023-07-31T01:16:15;95058.97;;;20.58;100.00
51083;BME280;37131;42.694;23.350;2023-07-31T01:18:40;95053.06;;;20.61;100.00
51083;BME280;37131;42.694;23.350;2023-07-31T01:24:21;95054.16;;;20.60;100.00
51083;BME280;37131;42.694;23.350;2023-07-31T01:26:55;95048.28;;;20.63;100.00
51083;BME280;37131;42.694;23.350;2023-07-31T01:29:37;95057.81;;;20.31;100.00
51083;BME280;37131;42.694;23.350;2023-07-31T01:32:04;95009.16;;;20.27;100.00
51083;BME280;37131;42.694;23.350;2023-07-31T01:34:31;95037.84;;;20.39;100.00
51083;BME280;37131;42.694;23.350;2023-07-31T01:36:57;95037.66;;;20.49;100.00
51083;BME280;37131;42.694;23.350;2023-07-31T01:39:23;95041.91;;;20.64;100.00
51083;BME280;37131;42.694;23.350;2023-07-31T01:41:49;95044.75;;;20.54;100.00
51083;BME280;37131;42.694;23.350;2023-07-31T01:44:14;95038.25;;;20.46;100.00
51083;BME280;37131;42.694;23.350;2023-07-31T01:46:40;95042.38;;;20.52;100.00
51083;BME280;37131;42.694;23.350;2023-07-31T01:49:05;95041.47;;;20.43;100.00
51083;BME280;37131;42.694;23.350;2023-07-31T01:51:31;95039.22;;;20.36;100.00
51083;BME280;37131;42.694;23.350;2023-07-31T01:54:00;95045.00;;;20.38;100.00
51083;BME280;37131;42.694;23.350;2023-07-31T01:56:25;95047.75;;;20.33;100.00
51083;BME280;37131;42.694;23.350;2023-07-31T01:58:50;95056.47;;;20.33;100.00
51083;BME280;37131;42.694;23.350;2023-07-31T02:01:16;95009.25;;;20.08;100.00
51083;BME280;37131;42.694;23.350;2023-07-31T02:03:41;95051.28;;;20.42;100.00
51083;BME280;37131;42.694;23.350;2023-07-31T02:06:07;95028.69;;;20.17;100.00
51083;BME280;37131;42.694;23.350;2023-07-31T02:08:32;95062.91;;;20.27;100.00
51083;BME280;37131;42.694;23.350;2023-07-31T02:10:58;95056.31;;;20.11;100.00
51083;BME280;37131;42.694;23.350;2023-07-31T02:13:23;95032.25;;;20.07;100.00
51083;BME280;37131;42.694;23.350;2023-07-31T02:15:49;95071.03;;;20.17;100.00
51083;BME280;37131;42.694;23.350;2023-07-31T02:18:15;95043.69;;;19.89;100.00
51083;BME280;37131;42.694;23.350;2023-07-31T02:20:41;95070.38;;;20.06;100.00
51083;BME280;37131;42.694;23.350;2023-07-31T02:23:06;95067.88;;;19.96;100.00
51083;BME280;37131;42.694;23.350;2023-07-31T02:25:32;95063.56;;;20.19;100.00
51083;BME280;37131;42.694;23.350;2023-07-31T02:27:57;95065.47;;;20.32;100.00
51083;BME280;37131;42.694;23.350;2023-07-31T02:30:23;95065.88;;;20.40;100.00
51083;BME280;37131;42.694;23.350;2023-07-31T02:32:48;95062.75;;;20.38;100.00
51083;BME280;37131;42.694;23.350;2023-07-31T02:35:14;95070.47;;;20.34;100.00
51083;BME280;37131;42.694;23.350;2023-07-31T02:37:41;95054.31;;;20.36;100.00
51083;BME280;37131;42.694;23.350;2023-07-31T02:40:07;95067.06;;;20.47;100.00
51083;BME280;37131;42.694;23.350;2023-07-31T02:42:32;95064.81;;;20.41;100.00
51083;BME280;37131;42.694;23.350;2023-07-31T02:44:58;95036.56;;;20.36;100.00
51083;BME280;37131;42.694;23.350;2023-07-31T02:47:23;95057.66;;;20.41;100.00
51083;BME280;37131;42.694;23.350;2023-07-31T02:49:49;95050.72;;;20.12;100.00
51083;BME280;37131;42.694;23.350;2023-07-31T02:52:14;95068.38;;;20.50;100.00
51083;BME280;37131;42.694;23.350;2023-07-31T02:54:39;95078.44;;;20.67;100.00
51083;BME280;37131;42.694;23.350;2023-07-31T02:57:05;95065.53;;;20.60;100.00
51083;BME280;37131;42.694;23.350;2023-07-31T02:59:30;95080.44;;;20.56;100.00
51083;BME280;37131;42.694;23.350;2023-07-31T03:01:56;95079.50;;;20.66;100.00
51083;BME280;37131;42.694;23.350;2023-07-31T03:04:21;95098.56;;;20.82;100.00
51083;BME280;37131;42.694;23.350;2023-07-31T03:06:47;95096.03;;;20.58;100.00
51083;BME280;37131;42.694;23.350;2023-07-31T03:09:12;95076.63;;;20.62;100.00
51083;BME280;37131;42.694;23.350;2023-07-31T03:11:37;95091.41;;;20.82;100.00
51083;BME280;37131;42.694;23.350;2023-07-31T03:14:03;95091.41;;;20.68;100.00
51083;BME280;37131;42.694;23.350;2023-07-31T03:16:28;95092.28;;;20.92;100.00
51083;BME280;37131;42.694;23.350;2023-07-31T03:18:54;95084.84;;;20.94;100.00
51083;BME280;37131;42.694;23.350;2023-07-31T03:21:19;95096.34;;;21.03;100.00
51083;BME280;37131;42.694;23.350;2023-07-31T03:23:45;95097.91;;;21.18;100.00
51083;BME280;37131;42.694;23.350;2023-07-31T03:26:10;95087.81;;;21.20;100.00
51083;BME280;37131;42.694;23.350;2023-07-31T03:28:36;95090.03;;;20.99;100.00
51083;BME280;37131;42.694;23.350;2023-07-31T03:31:02;95089.25;;;20.98;100.00
51083;BME280;37131;42.694;23.350;2023-07-31T03:33:27;95062.66;;;21.03;100.00
51083;BME280;37131;42.694;23.350;2023-07-31T03:35:53;95097.13;;;21.17;100.00
51083;BME280;37131;42.694;23.350;2023-07-31T03:38:19;95099.06;;;21.26;100.00
51083;BME280;37131;42.694;23.350;2023-07-31T03:40:44;95101.63;;;21.31;100.00
51083;BME280;37131;42.694;23.350;2023-07-31T03:43:10;95104.66;;;21.24;100.00
51083;BME280;37131;42.694;23.350;2023-07-31T03:45:36;95098.19;;;21.30;100.00
51083;BME280;37131;42.694;23.350;2023-07-31T03:48:02;95095.94;;;21.24;99.21
51083;BME280;37131;42.694;23.350;2023-07-31T03:50:27;95065.59;;;21.02;98.73
51083;BME280;37131;42.694;23.350;2023-07-31T03:52:53;95113.63;;;21.28;99.97
51083;BME280;37131;42.694;23.350;2023-07-31T03:55:18;95115.38;;;21.33;99.63
51083;BME280;37131;42.694;23.350;2023-07-31T03:57:44;95113.53;;;21.33;97.46
51083;BME280;37131;42.694;23.350;2023-07-31T04:00:10;95109.59;;;21.31;97.41
51083;BME280;37131;42.694;23.350;2023-07-31T04:02:35;95113.53;;;21.33;97.34
51083;BME280;37131;42.694;23.350;2023-07-31T04:05:00;95115.50;;;21.28;97.49
51083;BME280;37131;42.694;23.350;2023-07-31T04:07:26;95121.19;;;21.35;97.58
51083;BME280;37131;42.694;23.350;2023-07-31T04:09:51;95115.19;;;21.43;96.37
51083;BME280;37131;42.694;23.350;2023-07-31T04:12:17;95125.19;;;21.46;96.63
51083;BME280;37131;42.694;23.350;2023-07-31T04:14:42;95129.41;;;21.47;97.42
51083;BME280;37131;42.694;23.350;2023-07-31T04:17:07;95122.56;;;21.32;98.13
51083;BME280;37131;42.694;23.350;2023-07-31T04:19:33;95131.00;;;21.34;97.68
51083;BME280;37131;42.694;23.350;2023-07-31T04:21:58;95124.03;;;21.25;97.77
51083;BME280;37131;42.694;23.350;2023-07-31T04:24:23;95130.78;;;21.03;99.20
51083;BME280;37131;42.694;23.350;2023-07-31T04:26:50;95127.75;;;21.24;97.48
51083;BME280;37131;42.694;23.350;2023-07-31T04:29:16;95107.22;;;21.01;97.22
51083;BME280;37131;42.694;23.350;2023-07-31T04:31:41;95130.41;;;21.24;97.28
51083;BME280;37131;42.694;23.350;2023-07-31T04:34:07;95131.59;;;21.31;97.07
51083;BME280;37131;42.694;23.350;2023-07-31T04:36:34;95130.13;;;21.25;96.81
51083;BME280;37131;42.694;23.350;2023-07-31T04:38:59;95142.78;;;21.14;99.23
51083;BME280;37131;42.694;23.350;2023-07-31T04:41:25;95135.41;;;21.39;97.01
51083;BME280;37131;42.694;23.350;2023-07-31T04:43:50;95139.34;;;21.28;96.41
51083;BME280;37131;42.694;23.350;2023-07-31T04:46:16;95142.97;;;21.18;95.63
51083;BME280;37131;42.694;23.350;2023-07-31T04:48:42;95137.59;;;21.23;96.36
51083;BME280;37131;42.694;23.350;2023-07-31T04:51:08;95123.03;;;20.93;97.52
51083;BME280;37131;42.694;23.350;2023-07-31T04:53:34;95138.06;;;21.11;97.34
51083;BME280;37131;42.694;23.350;2023-07-31T04:56:00;95104.09;;;20.99;96.37
51083;BME280;37131;42.694;23.350;2023-07-31T04:58:25;95103.69;;;21.06;95.63
51083;BME280;37131;42.694;23.350;2023-07-31T05:00:51;95124.41;;;21.46;94.28
51083;BME280;37131;42.694;23.350;2023-07-31T05:03:16;95134.34;;;21.40;93.46
51083;BME280;37131;42.694;23.350;2023-07-31T05:05:41;95127.53;;;21.48;93.85
51083;BME280;37131;42.694;23.350;2023-07-31T05:08:07;95133.34;;;21.64;92.63
51083;BME280;37131;42.694;23.350;2023-07-31T05:10:32;95123.56;;;21.50;93.32
51083;BME280;37131;42.694;23.350;2023-07-31T05:12:58;95129.25;;;21.58;92.23
51083;BME280;37131;42.694;23.350;2023-07-31T05:15:23;95127.06;;;21.60;91.88
51083;BME280;37131;42.694;23.350;2023-07-31T05:17:48;95120.00;;;21.69;91.08
51083;BME280;37131;42.694;23.350;2023-07-31T05:20:14;95132.75;;;21.81;90.76
51083;BME280;37131;42.694;23.350;2023-07-31T05:22:40;95114.19;;;21.81;90.62
51083;BME280;37131;42.694;23.350;2023-07-31T05:25:06;95110.28;;;22.01;89.01
51083;BME280;37131;42.694;23.350;2023-07-31T05:27:32;95123.88;;;22.22;88.74
51083;BME280;37131;42.694;23.350;2023-07-31T05:29:57;95126.25;;;21.73;90.29
51083;BME280;37131;42.694;23.350;2023-07-31T05:32:23;95124.28;;;21.93;89.97
51083;BME280;37131;42.694;23.350;2023-07-31T05:34:53;95121.78;;;22.10;87.21
51083;BME280;37131;42.694;23.350;2023-07-31T05:37:19;95122.00;;;21.86;89.04
51083;BME280;37131;42.694;23.350;2023-07-31T05:39:44;95119.38;;;21.86;89.04
51083;BME280;37131;42.694;23.350;2023-07-31T05:42:10;95105.63;;;22.06;87.16
51083;BME280;37131;42.694;23.350;2023-07-31T05:44:35;95123.44;;;22.06;86.48
51083;BME280;37131;42.694;23.350;2023-07-31T05:47:01;95127.78;;;22.24;85.82
51083;BME280;37131;42.694;23.350;2023-07-31T05:49:26;95128.38;;;22.35;84.42
51083;BME280;37131;42.694;23.350;2023-07-31T05:51:52;95123.56;;;22.37;82.94
51083;BME280;37131;42.694;23.350;2023-07-31T05:54:17;95122.63;;;22.19;84.23
51083;BME280;37131;42.694;23.350;2023-07-31T05:56:42;95124.66;;;22.22;82.61
51083;BME280;37131;42.694;23.350;2023-07-31T05:59:09;95107.38;;;21.88;81.53
51083;BME280;37131;42.694;23.350;2023-07-31T06:01:35;95129.78;;;22.19;81.13
51083;BME280;37131;42.694;23.350;2023-07-31T06:04:01;95143.78;;;22.11;81.62
51083;BME280;37131;42.694;23.350;2023-07-31T06:06:28;95136.28;;;21.90;80.40
51083;BME280;37131;42.694;23.350;2023-07-31T06:08:54;95145.44;;;21.84;81.55
51083;BME280;37131;42.694;23.350;2023-07-31T06:11:20;95133.31;;;21.92;80.78
51083;BME280;37131;42.694;23.350;2023-07-31T06:13:46;95146.59;;;22.28;80.22
51083;BME280;37131;42.694;23.350;2023-07-31T06:16:13;95143.66;;;22.52;77.51
51083;BME280;37131;42.694;23.350;2023-07-31T06:18:39;95138.88;;;22.63;76.66
51083;BME280;37131;42.694;23.350;2023-07-31T06:21:05;95144.63;;;22.88;75.94
51083;BME280;37131;42.694;23.350;2023-07-31T06:23:30;95124.34;;;22.60;73.19
51083;BME280;37131;42.694;23.350;2023-07-31T06:25:56;95138.91;;;22.94;72.11
51083;BME280;37131;42.694;23.350;2023-07-31T06:28:27;95149.34;;;22.91;71.84
51083;BME280;37131;42.694;23.350;2023-07-31T06:30:53;95138.59;;;22.96;71.61
51083;BME280;37131;42.694;23.350;2023-07-31T06:33:18;95132.75;;;22.85;73.10
51083;BME280;37131;42.694;23.350;2023-07-31T06:35:43;95132.28;;;22.83;73.22
51083;BME280;37131;42.694;23.350;2023-07-31T06:38:09;95139.66;;;22.64;72.19
51083;BME280;37131;42.694;23.350;2023-07-31T06:40:34;95137.78;;;22.64;71.89
51083;BME280;37131;42.694;23.350;2023-07-31T06:43:00;95143.06;;;22.33;72.84
51083;BME280;37131;42.694;23.350;2023-07-31T06:45:31;95130.88;;;22.54;73.94
51083;BME280;37131;42.694;23.350;2023-07-31T06:47:56;95131.88;;;22.67;73.31
51083;BME280;37131;42.694;23.350;2023-07-31T06:50:26;95130.19;;;22.49;73.23
51083;BME280;37131;42.694;23.350;2023-07-31T06:52:52;95137.19;;;22.67;74.05
51083;BME280;37131;42.694;23.350;2023-07-31T06:55:19;95137.97;;;22.68;72.95
51083;BME280;37131;42.694;23.350;2023-07-31T06:57:46;95151.91;;;22.73;72.96
51083;BME280;37131;42.694;23.350;2023-07-31T07:00:11;95152.34;;;22.98;70.55
51083;BME280;37131;42.694;23.350;2023-07-31T07:02:37;95125.38;;;22.82;71.37
51083;BME280;37131;42.694;23.350;2023-07-31T07:05:02;95137.69;;;23.01;70.34
51083;BME280;37131;42.694;23.350;2023-07-31T07:07:28;95135.84;;;23.10;70.38
51083;BME280;37131;42.694;23.350;2023-07-31T07:09:53;95134.31;;;23.18;68.38
51083;BME280;37131;42.694;23.350;2023-07-31T07:12:19;95140.69;;;23.08;69.42
51083;BME280;37131;42.694;23.350;2023-07-31T07:14:44;95134.16;;;23.14;68.85
51083;BME280;37131;42.694;23.350;2023-07-31T07:17:11;95139.34;;;23.19;67.20
51083;BME280;37131;42.694;23.350;2023-07-31T07:19:40;95093.38;;;22.56;67.52
51083;BME280;37131;42.694;23.350;2023-07-31T07:22:06;95139.47;;;23.14;67.62
51083;BME280;37131;42.694;23.350;2023-07-31T07:24:32;95141.38;;;23.14;67.25
51083;BME280;37131;42.694;23.350;2023-07-31T07:26:57;95134.00;;;23.19;66.44
51083;BME280;37131;42.694;23.350;2023-07-31T07:29:22;95130.97;;;23.43;65.45
51083;BME280;37131;42.694;23.350;2023-07-31T07:31:48;95131.28;;;23.42;66.24
51083;BME280;37131;42.694;23.350;2023-07-31T07:34:13;95112.63;;;23.24;66.89
51083;BME280;37131;42.694;23.350;2023-07-31T07:36:39;95132.56;;;23.53;65.99
51083;BME280;37131;42.694;23.350;2023-07-31T07:39:04;95110.53;;;23.12;66.77
51083;BME280;37131;42.694;23.350;2023-07-31T07:41:30;95102.50;;;23.04;66.96
51083;BME280;37131;42.694;23.350;2023-07-31T07:43:55;95129.00;;;22.86;66.71
51083;BME280;37131;42.694;23.350;2023-07-31T07:46:21;95096.22;;;23.00;66.14
51083;BME280;37131;42.694;23.350;2023-07-31T07:48:46;95105.00;;;23.40;65.54
51083;BME280;37131;42.694;23.350;2023-07-31T07:51:11;95141.38;;;23.71;64.35
51083;BME280;37131;42.694;23.350;2023-07-31T07:53:37;95141.53;;;23.75;63.29
51083;BME280;37131;42.694;23.350;2023-07-31T07:56:02;95134.00;;;23.59;62.91
51083;BME280;37131;42.694;23.350;2023-07-31T07:58:28;95150.03;;;23.86;61.73
51083;BME280;37131;42.694;23.350;2023-07-31T08:00:53;95147.78;;;23.70;61.75
51083;BME280;37131;42.694;23.350;2023-07-31T08:03:19;95133.09;;;23.73;62.19
51083;BME280;37131;42.694;23.350;2023-07-31T08:05:44;95132.94;;;23.78;61.91
51083;BME280;37131;42.694;23.350;2023-07-31T08:08:17;95147.09;;;24.13;61.11
51083;BME280;37131;42.694;23.350;2023-07-31T08:10:43;95117.00;;;24.04;60.86
51083;BME280;37131;42.694;23.350;2023-07-31T08:13:11;95102.56;;;23.79;60.88
51083;BME280;37131;42.694;23.350;2023-07-31T08:15:37;95151.78;;;23.90;60.47
51083;BME280;37131;42.694;23.350;2023-07-31T08:18:02;95153.22;;;23.47;61.06
51083;BME280;37131;42.694;23.350;2023-07-31T08:20:28;95146.78;;;23.89;60.08
51083;BME280;37131;42.694;23.350;2023-07-31T08:22:53;95151.47;;;23.92;59.89
51083;BME280;37131;42.694;23.350;2023-07-31T08:25:19;95147.88;;;24.14;58.48
51083;BME280;37131;42.694;23.350;2023-07-31T08:27:44;95147.88;;;24.05;59.31
51083;BME280;37131;42.694;23.350;2023-07-31T08:30:11;95136.59;;;24.17;58.44
51083;BME280;37131;42.694;23.350;2023-07-31T08:32:37;95142.41;;;24.37;57.77
51083;BME280;37131;42.694;23.350;2023-07-31T08:35:03;95143.97;;;24.38;56.45
51083;BME280;37131;42.694;23.350;2023-07-31T08:37:28;95139.25;;;24.43;57.08
51083;BME280;37131;42.694;23.350;2023-07-31T08:39:54;95108.69;;;24.41;55.73
51083;BME280;37131;42.694;23.350;2023-07-31T08:42:20;95090.81;;;24.50;56.03
51083;BME280;37131;42.694;23.350;2023-07-31T08:44:46;95138.00;;;24.58;54.52
51083;BME280;37131;42.694;23.350;2023-07-31T08:47:12;95145.03;;;24.80;54.59
51083;BME280;37131;42.694;23.350;2023-07-31T08:49:38;95098.63;;;24.55;54.28
51083;BME280;37131;42.694;23.350;2023-07-31T08:52:06;95118.97;;;24.86;54.29
51083;BME280;37131;42.694;23.350;2023-07-31T08:54:31;95131.44;;;25.12;53.94
51083;BME280;37131;42.694;23.350;2023-07-31T08:56:58;95131.28;;;25.08;53.34
51083;BME280;37131;42.694;23.350;2023-07-31T08:59:27;95135.88;;;24.99;52.33
51083;BME280;37131;42.694;23.350;2023-07-31T09:01:55;95135.63;;;25.21;52.10
51083;BME280;37131;42.694;23.350;2023-07-31T09:04:23;95119.78;;;25.25;52.05
51083;BME280;37131;42.694;23.350;2023-07-31T09:06:51;95123.53;;;25.24;51.89
51083;BME280;37131;42.694;23.350;2023-07-31T09:09:19;95119.56;;;25.39;51.05
51083;BME280;37131;42.694;23.350;2023-07-31T09:11:46;95130.41;;;24.95;51.75
51083;BME280;37131;42.694;23.350;2023-07-31T09:14:12;95124.38;;;25.16;51.53
51083;BME280;37131;42.694;23.350;2023-07-31T09:16:58;95121.13;;;25.40;51.60
51083;BME280;37131;42.694;23.350;2023-07-31T09:19:35;95117.50;;;25.96;49.93
51083;BME280;37131;42.694;23.350;2023-07-31T09:22:04;95082.31;;;25.94;50.15
51083;BME280;37131;42.694;23.350;2023-07-31T09:24:31;95098.69;;;25.41;50.23
51083;BME280;37131;42.694;23.350;2023-07-31T09:26:58;95112.13;;;26.04;49.98
51083;BME280;37131;42.694;23.350;2023-07-31T09:29:24;95099.88;;;26.03;49.87
51083;BME280;37131;42.694;23.350;2023-07-31T09:31:51;95098.81;;;26.17;49.44
51083;BME280;37131;42.694;23.350;2023-07-31T09:34:17;95095.75;;;26.27;49.19
51083;BME280;37131;42.694;23.350;2023-07-31T09:36:45;95093.94;;;26.52;48.47
51083;BME280;37131;42.694;23.350;2023-07-31T09:39:11;95101.09;;;26.60;47.90
51083;BME280;37131;42.694;23.350;2023-07-31T09:41:38;95054.78;;;25.81;48.45
51083;BME280;37131;42.694;23.350;2023-07-31T09:44:04;95053.91;;;25.89;49.49
51083;BME280;37131;42.694;23.350;2023-07-31T09:46:29;95097.06;;;26.21;49.49
51083;BME280;37131;42.694;23.350;2023-07-31T09:49:09;95066.47;;;26.31;47.46
51083;BME280;37131;42.694;23.350;2023-07-31T09:51:40;95095.38;;;26.50;48.21
51083;BME280;37131;42.694;23.350;2023-07-31T09:54:12;95092.72;;;26.83;48.48
51083;BME280;37131;42.694;23.350;2023-07-31T09:56:45;95092.56;;;26.79;47.05
51083;BME280;37131;42.694;23.350;2023-07-31T09:59:14;95093.47;;;26.84;46.35
51083;BME280;37131;42.694;23.350;2023-07-31T10:01:41;95090.41;;;26.60;47.66
51083;BME280;37131;42.694;23.350;2023-07-31T10:04:08;95090.34;;;26.36;47.24
51083;BME280;37131;42.694;23.350;2023-07-31T10:06:35;95070.78;;;26.23;47.66
51083;BME280;37131;42.694;23.350;2023-07-31T10:09:03;95080.81;;;26.26;47.56
51083;BME280;37131;42.694;23.350;2023-07-31T10:11:34;95072.34;;;26.57;47.51
51083;BME280;37131;42.694;23.350;2023-07-31T10:14:03;95083.81;;;26.91;46.73
51083;BME280;37131;42.694;23.350;2023-07-31T10:16:30;95079.81;;;27.10;44.86
51083;BME280;37131;42.694;23.350;2023-07-31T10:18:56;95076.13;;;27.14;45.01
51083;BME280;37131;42.694;23.350;2023-07-31T10:21:22;95073.66;;;27.22;44.02
51083;BME280;37131;42.694;23.350;2023-07-31T10:23:49;95074.81;;;27.33;44.01
51083;BME280;37131;42.694;23.350;2023-07-31T10:26:17;95075.56;;;27.46;42.83
51083;BME280;37131;42.694;23.350;2023-07-31T10:28:46;95079.69;;;26.94;43.57
51083;BME280;37131;42.694;23.350;2023-07-31T10:31:12;95076.75;;;26.87;43.63
51083;BME280;37131;42.694;23.350;2023-07-31T10:33:38;95080.34;;;26.78;43.61
51083;BME280;37131;42.694;23.350;2023-07-31T10:36:18;95071.22;;;27.17;42.84
51083;BME280;37131;42.694;23.350;2023-07-31T10:38:44;95063.63;;;27.31;43.04
51083;BME280;37131;42.694;23.350;2023-07-31T10:41:10;95065.31;;;27.48;42.28
51083;BME280;37131;42.694;23.350;2023-07-31T10:43:38;95066.34;;;27.84;41.97
51083;BME280;37131;42.694;23.350;2023-07-31T10:46:08;95071.53;;;27.64;41.92
51083;BME280;37131;42.694;23.350;2023-07-31T10:48:35;95065.44;;;27.92;42.38
51083;BME280;37131;42.694;23.350;2023-07-31T10:51:10;95055.78;;;28.16;41.67
51083;BME280;37131;42.694;23.350;2023-07-31T10:53:36;95054.56;;;27.73;41.67
51083;BME280;37131;42.694;23.350;2023-07-31T10:56:04;95033.38;;;27.68;41.65
51083;BME280;37131;42.694;23.350;2023-07-31T10:58:31;95053.88;;;28.16;41.50
51083;BME280;37131;42.694;23.350;2023-07-31T11:00:59;95053.50;;;27.90;41.46
51083;BME280;37131;42.694;23.350;2023-07-31T11:03:27;95054.31;;;27.78;41.22
51083;BME280;37131;42.694;23.350;2023-07-31T11:06:05;95059.50;;;27.09;42.40
51083;BME280;37131;42.694;23.350;2023-07-31T11:08:32;95054.59;;;27.36;41.84
51083;BME280;37131;42.694;23.350;2023-07-31T11:13:33;95039.22;;;27.45;40.99
51083;BME280;37131;42.694;23.350;2023-07-31T11:16:00;95028.03;;;27.96;40.77
51083;BME280;37131;42.694;23.350;2023-07-31T11:18:26;95039.34;;;27.89;40.33
51083;BME280;37131;42.694;23.350;2023-07-31T11:20:52;95018.34;;;27.51;41.14
51083;BME280;37131;42.694;23.350;2023-07-31T11:23:19;95028.72;;;27.93;41.75
51083;BME280;37131;42.694;23.350;2023-07-31T11:25:45;95045.00;;;28.00;40.28
51083;BME280;37131;42.694;23.350;2023-07-31T11:28:13;95029.66;;;27.72;39.92
51083;BME280;37131;42.694;23.350;2023-07-31T11:30:39;95042.00;;;27.48;39.99
51083;BME280;37131;42.694;23.350;2023-07-31T11:33:10;95027.50;;;27.50;40.05
51083;BME280;37131;42.694;23.350;2023-07-31T11:35:44;95038.69;;;27.80;39.29
51083;BME280;37131;42.694;23.350;2023-07-31T11:40:49;95031.28;;;28.02;38.92
51083;BME280;37131;42.694;23.350;2023-07-31T11:43:15;95038.94;;;28.15;39.01
51083;BME280;37131;42.694;23.350;2023-07-31T11:45:48;95031.97;;;27.45;40.92
51083;BME280;37131;42.694;23.350;2023-07-31T11:48:23;95031.28;;;27.48;41.06
51083;BME280;37131;42.694;23.350;2023-07-31T11:50:50;95019.28;;;27.83;41.12
51083;BME280;37131;42.694;23.350;2023-07-31T11:53:19;95024.25;;;28.25;39.81
51083;BME280;37131;42.694;23.350;2023-07-31T11:55:45;95008.63;;;28.27;38.96
51083;BME280;37131;42.694;23.350;2023-07-31T11:58:13;95034.72;;;28.30;38.94
51083;BME280;37131;42.694;23.350;2023-07-31T12:00:40;95024.34;;;28.45;38.92
51083;BME280;37131;42.694;23.350;2023-07-31T12:03:06;95030.06;;;28.27;38.74
51083;BME280;37131;42.694;23.350;2023-07-31T12:05:31;95021.16;;;28.39;39.34
51083;BME280;37131;42.694;23.350;2023-07-31T12:07:57;94995.88;;;28.24;39.00
51083;BME280;37131;42.694;23.350;2023-07-31T12:12:59;95014.19;;;28.66;38.75
51083;BME280;37131;42.694;23.350;2023-07-31T12:15:38;94990.44;;;28.21;39.90
51083;BME280;37131;42.694;23.350;2023-07-31T12:18:11;95008.50;;;27.95;40.56
51083;BME280;37131;42.694;23.350;2023-07-31T12:20:45;95010.34;;;27.79;40.24
51083;BME280;37131;42.694;23.350;2023-07-31T12:23:22;94999.56;;;27.63;40.20
51083;BME280;37131;42.694;23.350;2023-07-31T12:26:14;94993.38;;;27.46;40.79
51083;BME280;37131;42.694;23.350;2023-07-31T12:28:49;95001.03;;;27.89;39.55
51083;BME280;37131;42.694;23.350;2023-07-31T12:31:16;95001.38;;;27.99;40.25
51083;BME280;37131;42.694;23.350;2023-07-31T12:33:46;95006.69;;;27.71;40.05
51083;BME280;37131;42.694;23.350;2023-07-31T12:36:15;95010.09;;;27.84;39.94
51083;BME280;37131;42.694;23.350;2023-07-31T12:38:42;94994.53;;;28.02;39.58
51083;BME280;37131;42.694;23.350;2023-07-31T12:41:08;95000.72;;;28.34;39.70
51083;BME280;37131;42.694;23.350;2023-07-31T12:43:34;94997.53;;;28.45;38.84
51083;BME280;37131;42.694;23.350;2023-07-31T12:46:00;94995.94;;;28.12;38.48
51083;BME280;37131;42.694;23.350;2023-07-31T12:48:25;94990.78;;;28.19;38.93
51083;BME280;37131;42.694;23.350;2023-07-31T12:50:51;94982.22;;;28.29;38.80
51083;BME280;37131;42.694;23.350;2023-07-31T12:53:16;94977.41;;;28.35;38.46
51083;BME280;37131;42.694;23.350;2023-07-31T12:55:42;94980.47;;;27.64;40.38
51083;BME280;37131;42.694;23.350;2023-07-31T12:58:07;94983.16;;;27.93;39.91